首页
METAR-TAF:

METAR-TAF

机场 :

格蘭德艾蘭, 內布拉斯加州, 美国

纬度: 40-57-30N, 经度: 098-18-45W, 海拔: 562米

当前天气观测

该预报发布于11分钟前的10:53 UTC
风速3节,风向东转东北
温度 14°C
湿度 94%
气压 1024 hPa
能見度: 16.1公里
天空无云

METAR: KGRI 181053Z AUTO 06003KT 10SM CLR 14/13 A3023 RMK AO2 SLP232 T01390133

时间: 06:04 (11:04 UTC)

预报

该预报发布于5小时和44分钟前的05:20 UTC
预报有效从18日的 06点(UTC)到 19日的 06点(UTC)
风速4节,风向东南
能見度: 10公里
少量云层高于7000英尺
散云层高于25000英尺
从 18日的 1000点(UTC)
风速4节,风向东南
能見度: 8.0公里
多云层高于8000英尺
轻雾
从 18日的 1300点(UTC)
风速6节,风向南转南东
能見度: 10公里
多云层高于8000英尺
附近有阵雨
从 18日的 1700点(UTC)
风速7节,风向
能見度: 10公里
多云层高于6000英尺
从 18日的 2300点(UTC)
风速7节,风向东南
能見度: 10公里
散云层高于6000英尺

TAF: KGRI 180520Z 1806/1906 13004KT P6SM FEW070 SCT250 FM181000 13004KT 5SM BR BKN080 FM181300 16006KT P6SM VCSH BKN080 FM181700 17007KT P6SM BKN060 FM182300 14007KT P6SM SCT060

超过4000个机场的气象观测和天气预报(METAR&TAF报告)。

可查询的气象台以黄色和红色小点在地图上表示。

将鼠标移到小点上方,可查看气象台名称。

然后点击查看天气观测和预报。

如需切换地图:点击带黑十字的绿色按钮放大地图;点击带横线的绿色按钮缩小地图;或者点击绿色箭头查看邻近地区的地图。


METAR-TAF: